Time;durP1;ratioP1;P1;durP2;ratioP2;P2;SDS_P1;SDS_P2;PMS_P1;PMS_P2;Temp;Humidity;BMP_temperature;BMP_pressure;BME280_temperature;BME280_humidity;BME280_pressure;Samples;Min_cycle;Max_cycle;Signal;HPM_P1;HPM_P2
2024/02/09 00:01:57;;;;;;;9.93;3.10;;;10.00;99.90;;;10.68;100.00;95668.84;4981790;28;20464;-78
2024/02/09 00:04:25;;;;;;;5.70;2.17;;;10.20;99.90;;;10.69;100.00;95668.59;4980579;28;20464;-78
2024/02/09 00:06:53;;;;;;;5.73;2.40;;;10.10;99.90;;;10.72;100.00;95654.28;4980656;28;20456;-78
2024/02/09 00:09:24;;;;;;;7.20;2.80;;;10.20;99.90;;;10.71;100.00;95655.28;4980843;28;20491;-78
2024/02/09 00:11:52;;;;;;;10.10;3.50;;;10.20;99.90;;;10.72;100.00;95654.28;4981494;28;20990;-78
2024/02/09 00:14:21;;;;;;;14.80;2.90;;;10.20;99.90;;;10.70;100.00;95651.88;4981045;28;20518;-78
2024/02/09 00:16:49;;;;;;;11.23;3.30;;;10.10;99.90;;;10.70;100.00;95661.56;4980838;28;20522;-78
2024/02/09 00:19:18;;;;;;;9.10;3.00;;;10.10;99.90;;;10.66;100.00;95647.38;4979653;28;20850;-78
2024/02/09 00:21:47;;;;;;;7.80;2.90;;;10.20;99.90;;;10.70;100.00;95651.09;4980638;28;20471;-78
2024/02/09 00:24:16;;;;;;;5.87;2.53;;;10.20;99.90;;;10.66;100.00;95648.19;4980604;28;20959;-78
2024/02/09 00:26:46;;;;;;;4.30;2.30;;;10.20;99.90;;;10.70;100.00;95640.63;4981336;28;20573;-78
2024/02/09 00:29:14;;;;;;;6.23;2.17;;;10.20;99.90;;;10.67;100.00;95635.91;4979855;28;20989;-77
2024/02/09 00:31:45;;;;;;;6.90;2.03;;;10.20;99.90;;;10.65;100.00;95645.84;4981085;28;20460;-78
2024/02/09 00:34:17;;;;;;;5.90;2.40;;;10.10;99.90;;;10.66;100.00;95639.56;4980469;28;20486;-78
2024/02/09 00:36:47;;;;;;;6.33;2.80;;;10.20;99.90;;;10.65;100.00;95646.63;4979978;28;20483;-79
2024/02/09 00:39:16;;;;;;;3.87;2.33;;;10.20;99.90;;;10.62;100.00;95643.72;4981111;28;20879;-78
2024/02/09 00:41:47;;;;;;;8.83;2.10;;;10.10;99.90;;;10.59;100.00;95656.22;4981286;28;21475;-78
2024/02/09 00:44:17;;;;;;;5.67;2.50;;;10.10;99.90;;;10.64;100.00;95642.44;4980221;28;20568;-78
2024/02/09 00:46:46;;;;;;;4.90;2.07;;;10.10;99.90;;;10.62;100.00;95647.09;4980927;28;20478;-78
2024/02/09 00:49:15;;;;;;;11.53;2.00;;;10.10;99.90;;;10.64;100.00;95652.09;4981197;28;20464;-78
2024/02/09 00:51:44;;;;;;;3.77;2.10;;;10.10;99.90;;;10.55;100.00;95644.69;4981460;28;20476;-78
2024/02/09 00:54:14;;;;;;;3.13;1.60;;;10.10;99.90;;;10.58;100.00;95641.59;4981109;28;21030;-78
2024/02/09 00:56:41;;;;;;;10.07;2.50;;;10.20;99.90;;;10.59;100.00;95643.16;4981312;28;20470;-78
2024/02/09 00:59:11;;;;;;;3.70;2.30;;;10.10;99.90;;;10.62;100.00;95643.72;4979830;28;20582;-78
2024/02/09 01:01:39;;;;;;;9.17;2.63;;;10.20;99.90;;;10.64;100.00;95633.78;4980581;28;20958;-78
2024/02/09 01:04:22;;;;;;;5.83;2.20;;;10.10;99.90;;;10.67;100.00;95634.09;4980609;28;20469;-78
2024/02/09 01:06:51;;;;;;;3.50;1.90;;;10.10;99.90;;;10.59;100.00;95630.09;4980701;28;20523;-78
2024/02/09 01:09:19;;;;;;;6.70;2.10;;;10.10;99.90;;;10.62;100.00;95622.81;4981102;28;20546;-78
2024/02/09 01:11:48;;;;;;;3.47;1.53;;;10.20;99.90;;;10.59;100.00;95613.63;4980293;28;20906;-78
2024/02/09 02:45:27;;;;;;;6.73;1.90;;;9.80;99.90;;;10.31;100.00;95515.38;4983146;28;20543;-78
2024/02/09 03:04:43;;;;;;;7.90;1.63;;;9.80;99.90;;;10.39;100.00;95491.44;4982956;28;20732;-78
2024/02/09 03:07:12;;;;;;;3.70;1.60;;;9.90;99.90;;;10.36;100.00;95483.31;4981840;28;20674;-78
2024/02/09 03:10:02;;;;;;;5.37;1.37;;;9.90;99.90;;;10.39;100.00;95494.03;4982053;28;20488;-78
2024/02/09 03:12:30;;;;;;;1.73;1.20;;;9.90;99.90;;;10.41;100.00;95481.50;4982502;28;20474;-78
2024/02/09 03:15:00;;;;;;;4.50;1.93;;;9.90;99.90;;;10.38;100.00;95495.06;4981284;28;20533;-78
2024/02/09 03:17:28;;;;;;;2.90;1.50;;;10.00;99.90;;;10.40;100.00;95495.63;4982135;28;20465;-78
2024/02/09 03:20:00;;;;;;;5.87;1.43;;;10.00;99.90;;;10.41;100.00;95478.13;4981890;28;20547;-77
2024/02/09 03:22:29;;;;;;;2.10;1.53;;;10.00;99.90;;;10.44;100.00;95493.31;4982501;28;20759;-78
2024/02/09 03:25:02;;;;;;;4.13;1.40;;;10.00;99.90;;;10.41;100.00;95481.50;4982101;28;20460;-78
2024/02/09 03:27:33;;;;;;;13.93;1.40;;;10.00;99.90;;;10.40;100.00;95476.56;4982546;28;20483;-78
2024/02/09 03:30:04;;;;;;;3.73;1.20;;;10.00;99.90;;;10.37;100.00;95470.00;4981529;28;20667;-78
2024/02/09 03:32:35;;;;;;;2.73;1.20;;;9.90;99.90;;;10.40;100.00;95487.78;4981790;28;20947;-78
2024/02/09 03:35:06;;;;;;;3.53;1.60;;;9.80;99.90;;;10.41;100.00;95471.06;4981117;28;20519;-78
2024/02/09 03:37:34;;;;;;;1.97;1.50;;;9.80;99.90;;;10.40;100.00;95479.97;4982321;28;20465;-78
2024/02/09 03:40:04;;;;;;;2.40;1.40;;;9.80;99.90;;;10.44;100.00;95467.97;4982239;28;20460;-78
2024/02/09 03:42:34;;;;;;;3.93;1.40;;;9.90;99.90;;;10.47;100.00;95464.88;4981873;28;20472;-78
2024/02/09 03:45:04;;;;;;;4.43;1.60;;;9.90;99.90;;;10.49;100.00;95473.22;4981519;28;20471;-78
2024/02/09 03:47:32;;;;;;;5.37;1.73;;;9.90;99.90;;;10.45;100.00;95477.38;4981597;28;20578;-78
2024/02/09 03:50:04;;;;;;;6.10;1.87;;;9.90;99.90;;;10.45;100.00;95466.91;4981323;28;20474;-78
2024/02/09 03:52:33;;;;;;;3.47;1.30;;;10.00;99.90;;;10.49;100.00;95461.97;4981950;28;20466;-78
2024/02/09 03:55:02;;;;;;;2.20;1.40;;;10.00;99.90;;;10.48;100.00;95469.03;4980799;28;21105;-78
2024/02/09 03:57:31;;;;;;;3.20;1.73;;;10.10;99.90;;;10.50;100.00;95472.19;4981015;28;21137;-78
2024/02/09 04:00:01;;;;;;;2.37;1.33;;;10.00;99.90;;;10.47;100.00;95462.25;4981283;28;20856;-78
2024/02/09 04:02:29;;;;;;;3.30;1.70;;;10.00;99.90;;;10.43;100.00;95460.38;4981749;28;20468;-78
2024/02/09 04:05:00;;;;;;;1.20;1.10;;;10.00;99.90;;;10.45;100.00;95456.47;4980588;28;20892;-78
2024/02/09 04:07:28;;;;;;;3.23;1.50;;;10.00;99.90;;;10.45;100.00;95461.69;4981079;28;20554;-79
2024/02/09 04:09:57;;;;;;;5.20;1.53;;;9.90;99.90;;;10.45;100.00;95461.69;4981947;28;20831;-78
2024/02/09 04:12:29;;;;;;;15.63;7.40;;;10.00;99.90;;;10.45;100.00;95459.09;4981422;28;20530;-82
2024/02/09 04:14:58;;;;;;;4.83;2.13;;;9.90;99.90;;;10.45;100.00;95464.31;4980189;28;20483;-78
2024/02/09 04:17:28;;;;;;;3.30;1.70;;;9.90;99.90;;;10.46;100.00;95459.88;4980945;28;20951;-78
2024/02/09 04:19:57;;;;;;;3.00;1.60;;;9.90;99.90;;;10.44;100.00;95467.97;4980592;28;21017;-77
2024/02/09 04:22:27;;;;;;;2.80;1.87;;;10.00;99.90;;;10.46;100.00;95455.44;4980197;28;21046;-81
2024/02/09 04:24:56;;;;;;;2.50;1.43;;;10.00;99.90;;;10.45;100.00;95456.47;4978248;28;20467;-77
2024/02/09 04:27:25;;;;;;;1.27;1.13;;;10.00;99.90;;;10.47;100.00;95457.03;4979721;28;20475;-76
2024/02/09 04:29:57;;;;;;;4.83;1.50;;;9.90;99.90;;;10.47;100.00;95462.25;4980440;28;20847;-77
2024/02/09 04:32:27;;;;;;;3.97;1.73;;;9.90;99.90;;;10.39;100.00;95464.53;4980856;28;20464;-76
2024/02/09 04:34:55;;;;;;;4.50;2.00;;;9.80;99.90;;;10.36;100.00;95452.75;4981521;28;20490;-77
2024/02/09 04:37:23;;;;;;;4.13;1.60;;;10.00;99.90;;;10.40;100.00;95459.06;4980103;28;21019;-77
2024/02/09 04:39:52;;;;;;;2.10;1.60;;;9.90;99.90;;;10.42;100.00;95451.75;4979026;28;20514;-76
2024/02/09 04:42:21;;;;;;;2.60;1.70;;;9.90;99.90;;;10.44;100.00;95451.50;4979988;28;20959;-77
2024/02/09 04:44:49;;;;;;;6.07;1.63;;;9.90;99.90;;;10.41;100.00;95444.94;4975600;28;20487;-75
2024/02/09 04:47:19;;;;;;;8.30;1.80;;;10.10;99.90;;;10.43;100.00;95447.31;4981111;28;20838;-76
2024/02/09 04:49:52;;;;;;;8.20;1.40;;;10.00;99.90;;;10.45;100.00;95451.25;4981295;28;20871;-77
2024/02/09 04:52:21;;;;;;;2.50;1.63;;;9.90;99.90;;;10.46;100.00;95450.22;4981015;28;20452;-76
2024/02/09 04:54:50;;;;;;;2.23;1.50;;;9.90;99.90;;;10.52;100.00;95441.38;4980165;28;20468;-76
2024/02/09 04:57:21;;;;;;;2.73;1.50;;;9.90;99.90;;;10.49;100.00;95447.09;4981012;28;20565;-76
2024/02/09 04:59:49;;;;;;;3.10;1.40;;;9.90;99.90;;;10.49;100.00;95441.88;4980347;28;20534;-77
2024/02/09 05:02:18;;;;;;;1.33;1.20;;;10.00;99.90;;;10.51;100.00;95444.25;4982389;28;20444;-76
2024/02/09 05:04:49;;;;;;;1.40;1.30;;;10.00;99.90;;;10.56;100.00;95436.44;4981738;28;20580;-76
2024/02/09 05:07:17;;;;;;;3.67;1.30;;;10.00;99.90;;;10.55;100.00;95440.88;4981764;28;20946;-76
2024/02/09 05:09:46;;;;;;;2.40;1.40;;;10.10;99.90;;;10.57;100.00;95436.19;4981927;28;20475;-76
2024/02/09 05:12:14;;;;;;;1.83;1.27;;;10.10;99.90;;;10.55;100.00;95443.47;4980143;28;20827;-76
2024/02/09 05:14:43;;;;;;;3.00;1.33;;;10.00;99.90;;;10.53;100.00;95437.72;4979980;28;20498;-81
2024/02/09 05:17:12;;;;;;;46.90;27.90;;;10.10;99.90;;;10.53;100.00;95442.94;4981058;28;20495;-76
2024/02/09 05:19:40;;;;;;;4.00;2.13;;;10.00;99.90;;;10.57;100.00;95446.66;4979906;28;21052;-76
2024/02/09 05:22:10;;;;;;;4.00;1.47;;;10.10;99.90;;;10.46;100.00;95447.59;4978836;28;20468;-76
2024/02/09 05:24:39;;;;;;;7.20;2.03;;;9.90;99.90;;;10.46;100.00;95437.16;4982653;28;20456;-76
2024/02/09 05:27:10;;;;;;;3.50;1.67;;;9.90;99.90;;;10.48;100.00;95442.13;4983262;28;20476;-76
2024/02/09 05:29:40;;;;;;;7.17;2.37;;;10.00;99.90;;;10.49;100.00;95441.09;4982501;28;20966;-76
2024/02/09 05:32:08;;;;;;;6.97;2.37;;;10.10;99.90;;;10.53;100.00;95437.72;4983283;28;20496;-76
2024/02/09 05:34:36;;;;;;;3.50;2.00;;;10.10;99.90;;;10.56;100.00;95439.84;4984797;28;21076;-75
2024/02/09 05:37:05;;;;;;;8.43;2.67;;;10.20;99.90;;;10.57;100.00;95438.81;4982871;28;20554;-80
2024/02/09 05:39:35;;;;;;;4.87;2.63;;;10.20;99.90;;;10.59;100.00;95435.94;4981835;28;20469;-77
2024/02/09 05:42:03;;;;;;;4.33;2.40;;;10.20;99.90;;;10.63;100.00;95441.44;4982289;28;20459;-77
2024/02/09 05:44:32;;;;;;;4.90;2.27;;;10.10;99.90;;;10.58;100.00;95437.78;4979184;28;20490;-77
2024/02/09 05:47:01;;;;;;;5.50;2.75;;;10.20;99.90;;;10.59;100.00;95425.47;4976947;28;20456;-78
2024/02/09 05:49:30;;;;;;;5.27;2.47;;;10.10;99.90;;;10.63;100.00;95436.22;4987092;28;20201;-77
2024/02/09 05:51:59;;;;;;;5.83;2.77;;;10.10;99.90;;;10.62;100.00;95429.44;4987637;28;20563;-78
2024/02/09 05:54:28;;;;;;;4.87;2.53;;;10.10;99.90;;;10.65;100.00;95429.72;4988134;28;20558;-77
2024/02/09 05:56:58;;;;;;;5.47;2.53;;;10.10;99.90;;;10.65;100.00;95428.94;4988496;28;21088;-77
2024/02/09 05:59:26;;;;;;;6.77;3.57;;;10.10;99.90;;;10.64;100.00;95422.13;4988539;28;20474;-77
2024/02/09 06:01:55;;;;;;;10.93;3.57;;;10.10;99.90;;;10.65;100.00;95418.47;4987385;28;20471;-76
2024/02/09 06:04:23;;;;;;;10.60;3.43;;;10.20;99.90;;;10.65;100.00;95428.94;4986881;28;20471;-77
2024/02/09 06:06:53;;;;;;;10.73;3.47;;;10.20;99.90;;;10.66;100.00;95435.69;4988783;28;20472;-77
2024/02/09 06:09:22;;;;;;;5.00;3.40;;;10.30;99.90;;;10.62;100.00;95429.44;4988235;28;20475;-77
2024/02/09 06:11:50;;;;;;;8.20;3.70;;;10.20;99.90;;;10.65;100.00;95429.72;4988851;28;20475;-77
2024/02/09 06:14:20;;;;;;;6.33;3.53;;;10.20;99.90;;;10.65;100.00;95436.75;4986559;28;20475;-77
2024/02/09 06:16:48;;;;;;;7.33;4.07;;;10.20;99.90;;;10.71;100.00;95440.97;4987588;28;20527;-77
2024/02/09 06:19:20;;;;;;;7.13;3.93;;;10.30;99.90;;;10.71;100.00;95427.91;4985883;28;20963;-77
2024/02/09 06:21:49;;;;;;;7.27;4.10;;;10.20;99.90;;;10.76;100.00;95431.34;4985239;28;20954;-77
2024/02/09 06:24:18;;;;;;;7.90;4.00;;;10.20;99.90;;;10.76;100.00;95433.19;4987098;28;20532;-77
2024/02/09 06:26:47;;;;;;;10.57;4.03;;;10.30;99.90;;;10.75;100.00;95428.97;4986928;28;20471;-77
2024/02/09 06:29:17;;;;;;;8.90;4.77;;;10.30;99.90;;;10.74;100.00;95427.41;4986447;28;20464;-77
2024/02/09 06:31:47;;;;;;;11.33;4.07;;;10.30;99.90;;;10.75;100.00;95423.75;4986368;28;20467;-77
2024/02/09 06:34:15;;;;;;;8.93;4.37;;;10.30;99.90;;;10.74;100.00;95422.19;4985762;28;20559;-77
2024/02/09 06:36:46;;;;;;;9.00;3.97;;;10.20;99.90;;;10.76;100.00;95417.50;4985447;28;20492;-77
2024/02/09 06:39:15;;;;;;;12.43;5.17;;;10.30;99.90;;;10.77;100.00;95414.63;4986394;28;20823;-78
2024/02/09 06:41:44;;;;;;;7.77;4.53;;;10.30;99.90;;;10.76;100.00;95407.03;4985345;28;20460;-77
2024/02/09 06:44:13;;;;;;;7.17;4.37;;;10.30;99.90;;;10.73;100.00;95415.38;4986628;28;20499;-77
2024/02/09 06:46:41;;;;;;;13.63;5.03;;;10.20;99.90;;;10.75;100.00;95423.75;4985722;28;20475;-77
2024/02/09 06:49:11;;;;;;;7.60;3.90;;;10.10;99.90;;;10.73;100.00;95415.38;4985934;28;20526;-77
2024/02/09 06:51:41;;;;;;;7.17;4.17;;;10.10;99.90;;;10.71;100.00;95420.06;4985307;28;20493;-77
2024/02/09 06:54:10;;;;;;;8.23;4.03;;;10.20;99.90;;;10.75;100.00;95413.31;4985393;28;21056;-78
2024/02/09 06:56:39;;;;;;;8.33;4.60;;;10.20;99.90;;;10.74;100.00;95422.19;4985197;28;20526;-77
2024/02/09 06:59:09;;;;;;;11.43;4.87;;;10.20;99.90;;;10.76;100.00;95418.25;4985900;28;20468;-78
2024/02/09 07:01:41;;;;;;;8.07;4.20;;;10.20;99.90;;;10.79;100.00;95427.44;4985228;28;20472;-77
2024/02/09 07:04:16;;;;;;;11.03;3.87;;;10.30;99.90;;;10.78;100.00;95429.28;4986604;28;20491;-77
2024/02/09 07:06:47;;;;;;;10.47;4.60;;;10.30;99.90;;;10.78;100.00;95418.03;4985602;28;20491;-77
2024/02/09 07:09:18;;;;;;;7.10;4.00;;;10.30;99.90;;;10.76;100.00;95410.41;4985752;28;21040;-78
2024/02/09 07:12:03;;;;;;;10.03;4.13;;;10.30;99.90;;;10.78;100.00;95425.88;4984854;28;20460;-76
2024/02/09 07:14:32;;;;;;;9.50;4.43;;;10.30;99.90;;;10.77;100.00;95417.22;4984399;28;20460;-77
2024/02/09 07:17:02;;;;;;;8.00;4.50;;;10.30;99.90;;;10.75;100.00;95410.69;4985057;28;20506;-77
2024/02/09 07:19:34;;;;;;;10.00;3.80;;;10.20;99.90;;;10.81;100.00;95417.50;4985650;28;20456;-77
2024/02/09 07:22:03;;;;;;;12.87;4.90;;;10.30;99.90;;;10.82;100.00;95419.09;4984099;28;20468;-77
2024/02/09 07:24:31;;;;;;;7.43;4.20;;;10.30;99.90;;;10.83;100.00;95429.28;4986332;28;20547;-78
2024/02/09 07:27:00;;;;;;;7.60;3.90;;;10.30;99.90;;;10.83;100.00;95428.53;4985653;28;20483;-77
2024/02/09 07:29:28;;;;;;;11.60;4.47;;;10.40;99.90;;;10.83;100.00;95424.06;4984782;28;20464;-77
2024/02/09 07:31:57;;;;;;;7.87;3.77;;;10.40;99.90;;;10.80;100.00;95431.63;4985420;28;20468;-77
2024/02/09 07:34:25;;;;;;;17.57;4.70;;;10.30;99.90;;;10.84;100.00;95425.63;4985891;28;20796;-78
2024/02/09 07:36:55;;;;;;;12.90;4.67;;;10.40;99.90;;;10.85;100.00;95429.03;4984651;28;20578;-77
2024/02/09 07:39:24;;;;;;;10.73;4.30;;;10.40;99.90;;;10.86;100.00;95425.41;4984774;28;21001;-77
2024/02/09 07:41:52;;;;;;;15.03;4.50;;;10.40;99.90;;;10.89;100.00;95414.44;4984254;28;20472;-78
2024/02/09 07:44:21;;;;;;;16.17;4.63;;;10.40;99.90;;;10.90;100.00;95431.66;4986217;28;20533;-78
2024/02/09 07:46:49;;;;;;;9.77;4.37;;;10.40;99.90;;;10.91;100.00;95433.25;4984080;28;20500;-77
2024/02/09 07:49:20;;;;;;;17.47;4.50;;;10.40;99.90;;;10.90;100.00;95423.81;4985942;28;20469;-78
2024/02/09 07:51:49;;;;;;;10.37;3.90;;;10.40;99.90;;;10.91;100.00;95425.41;4984603;28;20570;-77
2024/02/09 07:54:19;;;;;;;24.37;4.03;;;10.40;99.90;;;10.88;100.00;95429.31;4985444;28;20467;-76
2024/02/09 07:56:47;;;;;;;12.00;4.20;;;10.30;99.90;;;10.92;100.00;95430.41;4984228;28;20480;-77
2024/02/09 07:59:16;;;;;;;5.87;3.60;;;10.40;99.90;;;10.94;100.00;95432.75;4984730;28;20849;-77
2024/02/09 08:01:44;;;;;;;9.50;4.07;;;10.50;99.90;;;10.93;100.00;95433.81;4983274;28;20471;-77
2024/02/09 08:04:13;;;;;;;9.63;4.33;;;10.50;99.90;;;10.99;100.00;95443.25;4984828;28;20874;-77
2024/02/09 08:06:44;;;;;;;10.13;3.73;;;10.50;99.90;;;10.96;100.00;95441.94;4985317;28;20846;-77
2024/02/09 08:09:18;;;;;;;10.83;4.20;;;10.50;99.90;;;11.00;100.00;95450.06;4984577;28;21073;-77
2024/02/09 08:11:48;;;;;;;14.77;3.93;;;10.50;99.90;;;10.98;100.00;95457.34;4983748;28;21110;-77
2024/02/09 08:14:16;;;;;;;10.93;3.93;;;10.50;99.90;;;10.99;100.00;95449.25;4984685;28;20467;-77
2024/02/09 08:16:46;;;;;;;7.73;3.70;;;10.50;99.90;;;10.97;100.00;95453.94;4985511;28;21122;-77
2024/02/09 08:19:15;;;;;;;13.37;4.17;;;10.50;99.90;;;10.98;100.00;95449.50;4984388;28;20837;-77
2024/02/09 08:21:45;;;;;;;18.67;4.67;;;10.50;99.90;;;10.99;100.00;95445.84;4985181;28;20464;-77
2024/02/09 08:24:14;;;;;;;10.90;3.80;;;10.60;99.90;;;11.02;100.00;95445.34;4984776;28;20475;-77
2024/02/09 08:26:45;;;;;;;13.70;3.80;;;10.60;99.90;;;11.00;100.00;95447.44;4984979;28;20530;-77
2024/02/09 08:29:21;;;;;;;5.47;2.87;;;10.60;99.90;;;11.05;100.00;95450.06;4986084;28;20922;-77
2024/02/09 08:31:50;;;;;;;10.83;4.30;;;10.60;99.90;;;11.07;100.00;95442.78;4984047;28;20471;-77
2024/02/09 08:34:19;;;;;;;19.67;4.50;;;10.60;99.90;;;11.05;100.00;95455.28;4984287;28;20486;-77
2024/02/09 08:36:49;;;;;;;12.20;3.80;;;10.60;99.90;;;11.04;100.00;95457.13;4984897;28;20465;-77
2024/02/09 08:39:18;;;;;;;7.73;3.00;;;10.60;99.90;;;11.04;100.00;95451.09;4982785;28;20504;-77
2024/02/09 08:41:48;;;;;;;10.30;3.43;;;10.70;99.90;;;11.01;100.00;95439.31;4984139;28;20467;-77
2024/02/09 08:44:16;;;;;;;19.53;4.37;;;10.70;99.90;;;11.06;100.00;95441.19;4982399;28;20990;-77
2024/02/09 08:46:46;;;;;;;11.07;4.80;;;10.60;99.90;;;11.09;100.00;95445.91;4984524;28;20523;-77
2024/02/09 08:49:15;;;;;;;10.20;4.27;;;10.60;99.90;;;11.12;100.00;95442.78;4982686;28;20524;-77
2024/02/09 08:51:44;;;;;;;9.97;3.77;;;10.60;99.90;;;11.13;100.00;95441.75;4984623;28;20507;-78
2024/02/09 08:54:14;;;;;;;7.03;3.43;;;10.70;99.90;;;11.16;100.00;95436.00;4983698;28;20474;-77
2024/02/09 08:56:43;;;;;;;9.93;3.73;;;10.60;99.90;;;11.13;100.00;95449.59;4984953;28;20467;-77
2024/02/09 08:59:13;;;;;;;19.00;3.13;;;10.70;99.90;;;11.18;100.00;95439.13;4983160;28;20503;-77
2024/02/09 09:01:46;;;;;;;7.63;3.20;;;10.70;99.90;;;11.21;100.00;95451.69;4984108;28;20470;-77
2024/02/09 09:04:18;;;;;;;11.13;3.60;;;10.70;99.90;;;11.28;100.00;95447.03;4983921;28;21009;-77
2024/02/09 09:06:47;;;;;;;14.67;4.30;;;10.80;99.90;;;11.28;100.00;95457.50;4985144;28;20460;-77
2024/02/09 09:09:27;;;;;;;13.30;3.57;;;10.80;99.90;;;11.30;100.00;95452.81;4983025;28;20467;-77
2024/02/09 09:12:13;;;;;;;11.83;3.13;;;10.80;99.90;;;11.34;100.00;95443.41;4983381;28;20490;-77
2024/02/09 09:14:52;;;;;;;10.27;3.30;;;10.80;99.90;;;11.29;100.00;95456.47;4983597;28;20467;-78
2024/02/09 09:17:20;;;;;;;8.53;3.90;;;10.80;99.90;;;11.27;100.00;95453.31;4984201;28;20499;-78
2024/02/09 09:19:58;;;;;;;9.13;3.13;;;10.80;99.90;;;11.30;100.00;95452.81;4985793;28;20491;-77
2024/02/09 09:22:31;;;;;;;9.23;4.23;;;10.90;99.90;;;11.27;100.00;95448.09;4983824;28;20503;-78
2024/02/09 09:25:00;;;;;;;9.37;2.90;;;10.80;99.90;;;11.30;100.00;95446.78;4984292;28;20759;-77
2024/02/09 09:27:28;;;;;;;8.83;3.73;;;10.90;99.90;;;11.30;100.00;95437.13;4983174;28;20499;-77
2024/02/09 09:29:58;;;;;;;8.57;3.83;;;10.80;99.90;;;11.28;100.00;95441.03;4983256;28;20468;-77
2024/02/09 09:32:27;;;;;;;20.93;3.77;;;10.80;99.90;;;11.31;100.00;95443.94;4983165;28;20499;-77
2024/02/09 09:34:55;;;;;;;8.03;3.50;;;10.80;99.90;;;11.33;100.00;95438.44;4983729;28;20471;-77
2024/02/09 09:37:24;;;;;;;10.50;4.50;;;10.90;99.90;;;11.32;100.00;95449.91;4984083;28;20495;-77
2024/02/09 09:39:53;;;;;;;7.80;3.53;;;10.80;99.90;;;11.34;100.00;95453.88;4983110;28;20586;-77
2024/02/09 09:42:23;;;;;;;16.70;5.30;;;10.80;99.90;;;11.34;100.00;95443.41;4982933;28;20533;-77
2024/02/09 09:44:55;;;;;;;14.27;3.73;;;10.90;99.90;;;11.32;100.00;95440.25;4982874;28;20482;-77
2024/02/09 09:47:28;;;;;;;8.33;3.20;;;10.80;99.90;;;11.31;100.00;95441.31;4983709;28;20987;-76
2024/02/09 09:49:57;;;;;;;8.50;3.77;;;10.80;99.90;;;11.34;100.00;95438.19;4984272;28;20460;-76
2024/02/09 09:52:31;;;;;;;17.20;3.67;;;10.90;99.90;;;11.36;100.00;95441.31;4982689;28;20472;-76
2024/02/09 09:55:01;;;;;;;10.63;4.90;;;10.90;99.90;;;11.40;100.00;95439.75;4983283;28;20459;-76
2024/02/09 09:57:31;;;;;;;11.20;6.43;;;10.90;99.90;;;11.38;100.00;95423.56;4984164;28;20492;-76
2024/02/09 10:00:00;;;;;;;8.37;2.80;;;10.80;99.90;;;11.42;100.00;95419.34;4983997;28;20499;-77
2024/02/09 10:02:32;;;;;;;10.50;2.87;;;10.90;99.90;;;11.46;100.00;95417.81;4982826;28;20520;-77
2024/02/09 10:05:01;;;;;;;6.63;3.47;;;11.00;99.90;;;11.48;100.00;95422.78;4983752;28;20468;-77
2024/02/09 10:07:31;;;;;;;7.17;2.77;;;11.00;99.90;;;11.51;100.00;95412.59;4984985;28;20525;-77
2024/02/09 10:10:02;;;;;;;8.33;3.30;;;11.00;99.90;;;11.54;100.00;95417.31;4985959;28;20463;-77
2024/02/09 10:12:32;;;;;;;14.63;3.50;;;11.10;99.90;;;11.58;100.00;95421.00;4986810;28;20475;-77
2024/02/09 10:15:01;;;;;;;9.87;2.73;;;11.10;99.90;;;11.57;100.00;95419.41;4986487;28;20963;-77
2024/02/09 10:17:35;;;;;;;18.43;6.63;;;11.20;99.90;;;11.60;100.00;95420.72;4985065;28;20483;-78
2024/02/09 10:20:08;;;;;;;10.10;3.57;;;11.20;99.90;;;11.65;100.00;95417.34;4986926;28;20982;-77
2024/02/09 10:22:37;;;;;;;9.40;2.70;;;11.20;99.90;;;11.65;100.00;95417.34;4985469;28;20671;-77
2024/02/09 10:25:08;;;;;;;6.60;2.80;;;11.10;99.90;;;11.69;100.00;95423.63;4986943;28;20464;-77
2024/02/09 10:27:45;;;;;;;8.10;3.33;;;11.30;99.90;;;11.72;100.00;95417.91;4987174;28;20467;-77
2024/02/09 10:30:18;;;;;;;16.47;3.40;;;11.20;99.90;;;11.71;100.00;95432.81;4984940;28;20480;-77
2024/02/09 10:32:50;;;;;;;8.80;2.87;;;11.20;99.90;;;11.78;100.00;95429.97;4986138;28;20472;-77
2024/02/09 10:35:18;;;;;;;11.47;3.80;;;11.30;99.90;;;11.79;100.00;95434.94;4985409;28;20472;-77
2024/02/09 10:37:48;;;;;;;16.43;3.50;;;11.30;99.90;;;11.85;100.00;95427.88;4986637;28;20463;-77
2024/02/09 10:40:18;;;;;;;13.67;3.50;;;11.40;99.90;;;11.90;100.00;95418.22;4987252;28;20573;-77
2024/02/09 10:42:50;;;;;;;13.83;3.27;;;11.40;99.90;;;11.93;100.00;95416.91;4985301;28;20503;-78
2024/02/09 10:45:20;;;;;;;5.63;3.00;;;11.30;99.90;;;11.99;100.00;95418.47;4985792;28;20479;-77
2024/02/09 10:47:56;;;;;;;6.13;3.27;;;11.40;99.90;;;11.99;100.00;95423.72;4986902;28;20476;-77
2024/02/09 10:50:28;;;;;;;8.80;3.20;;;11.50;99.90;;;12.00;100.00;95418.22;4987462;28;20470;-77
2024/02/09 10:53:04;;;;;;;5.00;2.73;;;11.50;99.90;;;12.03;100.00;95409.06;4987367;28;20603;-77
2024/02/09 10:55:42;;;;;;;4.97;3.20;;;11.50;99.90;;;12.06;100.00;95421.63;4987123;28;20550;-77
2024/02/09 10:58:13;;;;;;;13.43;3.30;;;11.50;99.90;;;12.04;100.00;95410.63;4986579;28;20470;-77
2024/02/09 11:00:43;;;;;;;13.30;2.77;;;11.60;99.90;;;12.01;100.00;95416.38;4984911;28;21061;-77
2024/02/09 11:03:13;;;;;;;6.90;3.40;;;11.50;99.90;;;11.98;100.00;95416.88;4986302;28;20547;-77
2024/02/09 11:05:42;;;;;;;9.77;2.53;;;11.40;99.90;;;11.99;100.00;95419.25;4986670;28;20467;-77
2024/02/09 11:08:11;;;;;;;7.93;3.10;;;11.40;99.90;;;12.03;100.00;95419.53;4986351;28;20495;-77
2024/02/09 11:10:41;;;;;;;12.00;2.80;;;11.50;99.90;;;12.06;100.00;95424.25;4985722;28;20482;-77
2024/02/09 11:13:10;;;;;;;7.33;2.97;;;11.50;99.90;;;12.07;100.00;95426.63;4985972;28;20536;-77
2024/02/09 11:15:39;;;;;;;11.60;3.40;;;11.60;99.90;;;12.06;100.00;95417.19;4984342;28;20460;-77
2024/02/09 11:18:09;;;;;;;14.33;3.30;;;11.60;99.90;;;12.06;100.00;95425.03;4985441;28;21034;-78
2024/02/09 11:20:39;;;;;;;12.73;2.90;;;11.50;99.90;;;12.03;100.00;95427.38;4985727;28;21025;-76
2024/02/09 11:23:07;;;;;;;9.40;2.83;;;11.50;99.90;;;12.06;100.00;95414.56;4985031;28;20471;-77
2024/02/09 11:25:36;;;;;;;4.80;2.27;;;11.60;99.90;;;12.05;100.00;95409.56;4985409;28;20482;-77
2024/02/09 11:28:08;;;;;;;18.40;4.30;;;11.70;99.90;;;12.02;100.00;95431.03;4985350;28;20468;-77
2024/02/09 11:30:38;;;;;;;8.63;2.60;;;11.60;99.90;;;12.02;100.00;95410.88;4985566;28;20472;-77
2024/02/09 11:33:10;;;;;;;10.67;3.03;;;11.50;99.90;;;12.03;100.00;95416.91;4985042;28;20527;-77
2024/02/09 11:35:40;;;;;;;16.47;3.30;;;11.60;99.90;;;12.03;100.00;95422.16;4986060;28;20479;-77
2024/02/09 11:38:09;;;;;;;12.73;3.23;;;11.50;99.90;;;12.02;100.00;95423.97;4984876;28;20471;-77
2024/02/09 11:40:39;;;;;;;12.53;2.70;;;11.50;99.90;;;11.94;100.00;95418.47;4985323;28;20507;-77
2024/02/09 11:43:09;;;;;;;14.77;3.73;;;11.50;99.90;;;11.93;100.00;95409.03;4985917;28;20514;-77
2024/02/09 11:45:38;;;;;;;11.97;3.00;;;11.50;99.90;;;11.94;100.00;95405.38;4984743;28;20897;-77
2024/02/09 11:48:08;;;;;;;8.93;2.80;;;11.50;99.90;;;11.94;100.00;95397.53;4985341;28;20554;-77
2024/02/09 11:50:37;;;;;;;7.50;3.63;;;11.50;99.90;;;11.97;100.00;95404.88;4985462;28;20464;-77
2024/02/09 11:53:09;;;;;;;14.20;2.97;;;11.40;99.90;;;11.92;100.00;95405.63;4984030;28;20877;-77
2024/02/09 11:55:42;;;;;;;8.30;2.97;;;11.40;99.90;;;11.93;100.00;95396.75;4986194;28;20467;-77
2024/02/09 11:58:13;;;;;;;10.23;3.07;;;11.40;99.90;;;11.98;100.00;95391.50;4986116;28;20468;-77
2024/02/09 12:00:43;;;;;;;6.50;3.10;;;11.40;99.90;;;12.00;100.00;95384.19;4984831;28;20525;-77
2024/02/09 12:03:13;;;;;;;9.60;2.97;;;11.50;99.90;;;11.98;100.00;95388.88;4983307;28;20472;-76
2024/02/09 12:05:50;;;;;;;13.07;3.23;;;11.50;99.90;;;11.98;100.00;95386.25;4985215;28;20503;-77
2024/02/09 12:08:21;;;;;;;8.40;2.87;;;11.50;99.90;;;12.00;100.00;95384.19;4984541;28;20527;-77
2024/02/09 12:10:51;;;;;;;7.20;2.40;;;11.60;99.90;;;11.96;100.00;95374.47;4984308;28;20470;-77